sensor_id;sensor_type;location;lat;lon;timestamp;pressure;altitude;pressure_sealevel;temperature;humidity
64753;BME280;61095;52.454;16.948;2022-09-06T04:03:54;101428.72;;;10.42;62.80
64753;BME280;61095;52.454;16.948;2022-09-06T04:08:52;101440.31;;;10.32;62.85
64753;BME280;61095;52.454;16.948;2022-09-06T04:13:51;101435.09;;;10.27;63.13
64753;BME280;61095;52.454;16.948;2022-09-06T04:18:49;101439.28;;;10.42;62.47
64753;BME280;61095;52.454;16.948;2022-09-06T04:23:49;101435.69;;;10.48;62.69
64753;BME280;61095;52.454;16.948;2022-09-06T04:28:48;101441.50;;;10.70;61.99
64753;BME280;61095;52.454;16.948;2022-09-06T04:33:46;101439.53;;;10.82;61.85
64753;BME280;61095;52.454;16.948;2022-09-06T04:38:45;101441.66;;;11.13;61.52
64753;BME280;61095;52.454;16.948;2022-09-06T04:43:44;101433.41;;;11.31;61.34
64753;BME280;61095;52.454;16.948;2022-09-06T04:48:43;101436.44;;;11.59;60.57
64753;BME280;61095;52.454;16.948;2022-09-06T04:53:41;101425.31;;;11.85;59.70
64753;BME280;61095;52.454;16.948;2022-09-06T04:58:41;101423.81;;;12.15;59.38
64753;BME280;61095;52.454;16.948;2022-09-06T05:03:41;101425.63;;;12.52;58.42
64753;BME280;61095;52.454;16.948;2022-09-06T05:08:40;101423.69;;;12.94;58.07
64753;BME280;61095;52.454;16.948;2022-09-06T05:13:39;101428.13;;;13.27;57.17
64753;BME280;61095;52.454;16.948;2022-09-06T05:18:38;101419.63;;;13.78;56.08
64753;BME280;61095;52.454;16.948;2022-09-06T05:23:38;101434.50;;;14.15;55.32
64753;BME280;61095;52.454;16.948;2022-09-06T05:28:36;101427.50;;;14.42;53.93
64753;BME280;61095;52.454;16.948;2022-09-06T05:33:35;101428.84;;;14.81;53.42
64753;BME280;61095;52.454;16.948;2022-09-06T05:38:34;101424.75;;;15.24;52.66
64753;BME280;61095;52.454;16.948;2022-09-06T05:43:35;101420.13;;;15.54;51.04
64753;BME280;61095;52.454;16.948;2022-09-06T05:48:34;101412.06;;;15.80;51.19
64753;BME280;61095;52.454;16.948;2022-09-06T05:53:33;101413.81;;;16.28;50.05
64753;BME280;61095;52.454;16.948;2022-09-06T05:58:32;101407.00;;;16.43;49.76
64753;BME280;61095;52.454;16.948;2022-09-06T06:03:32;101407.59;;;16.93;48.33
64753;BME280;61095;52.454;16.948;2022-09-06T06:08:30;101406.00;;;17.09;48.08
64753;BME280;61095;52.454;16.948;2022-09-06T06:13:29;101401.28;;;17.36;47.67
64753;BME280;61095;52.454;16.948;2022-09-06T06:18:32;101408.75;;;17.67;46.49
64753;BME280;61095;52.454;16.948;2022-09-06T06:23:31;101395.03;;;18.14;46.28
64753;BME280;61095;52.454;16.948;2022-09-06T06:28:29;101395.81;;;18.35;45.87
64753;BME280;61095;52.454;16.948;2022-09-06T06:33:28;101393.06;;;18.36;45.35
64753;BME280;61095;52.454;16.948;2022-09-06T06:38:32;101398.63;;;18.69;44.31
64753;BME280;61095;52.454;16.948;2022-09-06T06:43:31;101382.63;;;18.68;44.58
64753;BME280;61095;52.454;16.948;2022-09-06T06:48:32;101386.97;;;18.70;44.73
64753;BME280;61095;52.454;16.948;2022-09-06T06:53:32;101379.34;;;18.61;43.99
64753;BME280;61095;52.454;16.948;2022-09-06T06:58:31;101386.59;;;18.59;44.38
64753;BME280;61095;52.454;16.948;2022-09-06T07:03:29;101377.22;;;18.69;44.63
64753;BME280;61095;52.454;16.948;2022-09-06T07:08:28;101367.09;;;18.76;44.04
64753;BME280;61095;52.454;16.948;2022-09-06T07:13:28;101378.63;;;18.94;44.13
64753;BME280;61095;52.454;16.948;2022-09-06T07:18:27;101385.50;;;19.17;43.60
64753;BME280;61095;52.454;16.948;2022-09-06T07:23:25;101379.94;;;19.37;43.53
64753;BME280;61095;52.454;16.948;2022-09-06T07:28:24;101398.06;;;19.32;43.13
64753;BME280;61095;52.454;16.948;2022-09-06T07:33:24;101389.69;;;19.55;43.04
64753;BME280;61095;52.454;16.948;2022-09-06T07:38:22;101388.97;;;19.52;43.34
64753;BME280;61095;52.454;16.948;2022-09-06T07:43:21;101393.16;;;19.57;42.90
64753;BME280;61095;52.454;16.948;2022-09-06T07:48:19;101403.88;;;19.40;42.69
64753;BME280;61095;52.454;16.948;2022-09-06T07:53:19;101392.28;;;19.40;42.51
64753;BME280;61095;52.454;16.948;2022-09-06T07:58:18;101388.22;;;19.32;42.72
64753;BME280;61095;52.454;16.948;2022-09-06T08:03:16;101378.31;;;19.34;43.32
64753;BME280;61095;52.454;16.948;2022-09-06T08:08:15;101373.34;;;19.27;42.89
64753;BME280;61095;52.454;16.948;2022-09-06T08:13:14;101372.78;;;19.38;42.44
64753;BME280;61095;52.454;16.948;2022-09-06T08:18:13;101373.41;;;19.43;42.11
64753;BME280;61095;52.454;16.948;2022-09-06T08:23:11;101356.28;;;19.29;42.01
64753;BME280;61095;52.454;16.948;2022-09-06T08:28:10;101362.06;;;19.38;42.25
64753;BME280;61095;52.454;16.948;2022-09-06T08:33:09;101352.22;;;19.38;42.34
64753;BME280;61095;52.454;16.948;2022-09-06T08:38:08;101349.03;;;19.31;41.96
64753;BME280;61095;52.454;16.948;2022-09-06T08:43:11;101345.66;;;19.28;41.21
64753;BME280;61095;52.454;16.948;2022-09-06T08:48:15;101358.63;;;19.35;41.61
64753;BME280;61095;52.454;16.948;2022-09-06T08:53:15;101343.06;;;19.26;41.21
64753;BME280;61095;52.454;16.948;2022-09-06T08:58:30;101347.72;;;19.05;40.80
64753;BME280;61095;52.454;16.948;2022-09-06T09:03:35;101341.03;;;19.14;41.10
64753;BME280;61095;52.454;16.948;2022-09-06T09:08:40;101337.03;;;19.39;40.63
64753;BME280;61095;52.454;16.948;2022-09-06T09:13:50;101341.44;;;19.40;39.44
64753;BME280;61095;52.454;16.948;2022-09-06T09:18:53;101330.56;;;19.43;38.97
64753;BME280;61095;52.454;16.948;2022-09-06T09:23:56;101326.06;;;19.43;38.90
64753;BME280;61095;52.454;16.948;2022-09-06T09:29:01;101315.63;;;19.39;37.86
64753;BME280;61095;52.454;16.948;2022-09-06T09:34:02;101312.28;;;19.51;38.22
64753;BME280;61095;52.454;16.948;2022-09-06T09:39:07;101310.63;;;19.48;37.46
64753;BME280;61095;52.454;16.948;2022-09-06T09:44:09;101304.41;;;19.65;37.50
64753;BME280;61095;52.454;16.948;2022-09-06T09:49:12;101291.28;;;19.76;37.15
64753;BME280;61095;52.454;16.948;2022-09-06T09:54:13;101305.59;;;19.75;37.52
64753;BME280;61095;52.454;16.948;2022-09-06T09:59:18;101301.03;;;19.61;36.52
64753;BME280;61095;52.454;16.948;2022-09-06T10:04:23;101300.56;;;19.53;36.45
64753;BME280;61095;52.454;16.948;2022-09-06T10:09:31;101309.28;;;19.57;36.46
64753;BME280;61095;52.454;16.948;2022-09-06T10:14:38;101287.56;;;19.63;37.10
64753;BME280;61095;52.454;16.948;2022-09-06T10:19:42;101291.72;;;19.69;36.27
64753;BME280;61095;52.454;16.948;2022-09-06T10:24:50;101287.38;;;19.66;35.86
64753;BME280;61095;52.454;16.948;2022-09-06T10:29:57;101274.69;;;19.85;36.07
64753;BME280;61095;52.454;16.948;2022-09-06T10:35:07;101276.41;;;19.86;36.22
64753;BME280;61095;52.454;16.948;2022-09-06T10:40:21;101268.88;;;19.93;35.43
64753;BME280;61095;52.454;16.948;2022-09-06T10:45:28;101264.88;;;20.00;36.12
64753;BME280;61095;52.454;16.948;2022-09-06T10:50:39;101258.06;;;20.10;35.65
64753;BME280;61095;52.454;16.948;2022-09-06T10:55:40;101248.91;;;20.14;35.93
64753;BME280;61095;52.454;16.948;2022-09-06T11:00:43;101258.25;;;20.07;35.53
64753;BME280;61095;52.454;16.948;2022-09-06T11:05:46;101253.50;;;19.96;35.57
64753;BME280;61095;52.454;16.948;2022-09-06T11:10:49;101236.00;;;20.05;35.49
64753;BME280;61095;52.454;16.948;2022-09-06T11:15:54;101244.00;;;20.07;34.91
64753;BME280;61095;52.454;16.948;2022-09-06T11:21:20;101229.38;;;19.96;35.32
64753;BME280;61095;52.454;16.948;2022-09-06T11:26:31;101228.34;;;19.99;35.28
64753;BME280;61095;52.454;16.948;2022-09-06T11:31:33;101218.75;;;19.95;34.78
64753;BME280;61095;52.454;16.948;2022-09-06T11:36:36;101218.94;;;20.08;34.94
64753;BME280;61095;52.454;16.948;2022-09-06T11:41:37;101215.13;;;20.12;35.14
64753;BME280;61095;52.454;16.948;2022-09-06T11:46:59;101200.22;;;20.22;34.82
64753;BME280;61095;52.454;16.948;2022-09-06T11:51:59;101207.00;;;20.27;34.29
64753;BME280;61095;52.454;16.948;2022-09-06T11:57:01;101196.94;;;20.17;34.29
64753;BME280;61095;52.454;16.948;2022-09-06T12:02:02;101187.44;;;20.11;34.74
64753;BME280;61095;52.454;16.948;2022-09-06T12:07:08;101191.09;;;20.10;34.50
64753;BME280;61095;52.454;16.948;2022-09-06T12:12:07;101178.09;;;20.18;34.75
64753;BME280;61095;52.454;16.948;2022-09-06T12:17:24;101178.66;;;20.09;34.52
64753;BME280;61095;52.454;16.948;2022-09-06T12:28:03;101180.19;;;20.13;34.34
64753;BME280;61095;52.454;16.948;2022-09-06T12:33:05;101162.31;;;20.28;34.56
64753;BME280;61095;52.454;16.948;2022-09-06T12:38:11;101181.53;;;20.20;34.30
64753;BME280;61095;52.454;16.948;2022-09-06T12:43:14;101175.91;;;20.25;33.98
64753;BME280;61095;52.454;16.948;2022-09-06T12:48:25;101158.47;;;20.18;33.96
64753;BME280;61095;52.454;16.948;2022-09-06T12:53:24;101144.59;;;20.25;34.67
64753;BME280;61095;52.454;16.948;2022-09-06T12:58:27;101137.13;;;20.30;34.75
64753;BME280;61095;52.454;16.948;2022-09-06T13:03:29;101147.09;;;20.28;34.74
64753;BME280;61095;52.454;16.948;2022-09-06T13:08:32;101141.16;;;20.23;34.99
64753;BME280;61095;52.454;16.948;2022-09-06T13:13:33;101133.03;;;20.25;35.04
64753;BME280;61095;52.454;16.948;2022-09-06T13:18:33;101116.19;;;20.23;35.48
64753;BME280;61095;52.454;16.948;2022-09-06T13:23:40;101127.75;;;20.23;35.40
64753;BME280;61095;52.454;16.948;2022-09-06T13:28:40;101109.31;;;20.33;35.31
64753;BME280;61095;52.454;16.948;2022-09-06T13:33:40;101123.75;;;20.30;35.45
64753;BME280;61095;52.454;16.948;2022-09-06T13:38:40;101111.03;;;20.34;35.10
64753;BME280;61095;52.454;16.948;2022-09-06T13:43:43;101107.03;;;20.41;34.87
64753;BME280;61095;52.454;16.948;2022-09-06T13:48:43;101100.72;;;20.56;35.06
64753;BME280;61095;52.454;16.948;2022-09-06T13:53:42;101112.50;;;20.54;35.36
64753;BME280;61095;52.454;16.948;2022-09-06T13:58:42;101104.91;;;20.46;34.80
64753;BME280;61095;52.454;16.948;2022-09-06T14:03:41;101098.59;;;20.47;34.96
64753;BME280;61095;52.454;16.948;2022-09-06T14:08:40;101092.66;;;20.42;35.77
64753;BME280;61095;52.454;16.948;2022-09-06T14:13:39;101096.69;;;20.35;35.59
64753;BME280;61095;52.454;16.948;2022-09-06T14:18:39;101098.75;;;20.30;35.60
64753;BME280;61095;52.454;16.948;2022-09-06T14:23:37;101082.19;;;20.23;35.71
64753;BME280;61095;52.454;16.948;2022-09-06T14:28:36;101080.00;;;20.30;35.88
64753;BME280;61095;52.454;16.948;2022-09-06T14:33:34;101075.88;;;20.24;36.16
64753;BME280;61095;52.454;16.948;2022-09-06T14:38:36;101078.94;;;20.33;35.68
64753;BME280;61095;52.454;16.948;2022-09-06T14:43:36;101068.31;;;20.31;36.01
64753;BME280;61095;52.454;16.948;2022-09-06T14:48:35;101059.91;;;20.37;36.21
64753;BME280;61095;52.454;16.948;2022-09-06T14:53:37;101067.97;;;20.37;35.95
64753;BME280;61095;52.454;16.948;2022-09-06T14:58:37;101060.56;;;20.26;35.38
64753;BME280;61095;52.454;16.948;2022-09-06T15:03:35;101058.94;;;20.24;36.32
64753;BME280;61095;52.454;16.948;2022-09-06T15:08:35;101057.69;;;20.15;36.25
64753;BME280;61095;52.454;16.948;2022-09-06T15:13:35;101048.13;;;20.11;36.23
64753;BME280;61095;52.454;16.948;2022-09-06T15:18:35;101040.00;;;20.13;36.30
64753;BME280;61095;52.454;16.948;2022-09-06T15:23:33;101051.00;;;20.08;36.45
64753;BME280;61095;52.454;16.948;2022-09-06T15:28:32;101051.34;;;20.02;37.26
64753;BME280;61095;52.454;16.948;2022-09-06T15:33:33;101042.06;;;19.93;37.08
64753;BME280;61095;52.454;16.948;2022-09-06T15:38:32;101037.75;;;19.91;36.68
64753;BME280;61095;52.454;16.948;2022-09-06T15:43:31;101045.69;;;19.92;36.92
64753;BME280;61095;52.454;16.948;2022-09-06T15:48:40;101031.72;;;19.87;37.05
64753;BME280;61095;52.454;16.948;2022-09-06T15:53:39;101028.19;;;19.87;37.17
64753;BME280;61095;52.454;16.948;2022-09-06T15:58:37;101028.38;;;19.84;37.18
64753;BME280;61095;52.454;16.948;2022-09-06T16:03:38;101029.88;;;19.74;37.46
64753;BME280;61095;52.454;16.948;2022-09-06T16:08:39;101024.81;;;19.69;38.14
64753;BME280;61095;52.454;16.948;2022-09-06T16:13:39;101019.06;;;19.61;38.23
64753;BME280;61095;52.454;16.948;2022-09-06T16:18:39;101016.72;;;19.55;38.14
64753;BME280;61095;52.454;16.948;2022-09-06T16:23:40;101024.31;;;19.47;38.32
64753;BME280;61095;52.454;16.948;2022-09-06T16:28:39;101012.16;;;19.41;38.78
64753;BME280;61095;52.454;16.948;2022-09-06T16:33:38;101008.03;;;19.35;38.83
64753;BME280;61095;52.454;16.948;2022-09-06T16:38:39;101016.16;;;19.34;38.89
64753;BME280;61095;52.454;16.948;2022-09-06T16:43:38;101007.53;;;19.29;39.32
64753;BME280;61095;52.454;16.948;2022-09-06T16:48:37;101007.97;;;19.21;39.48
64753;BME280;61095;52.454;16.948;2022-09-06T16:53:40;101012.66;;;19.18;39.22
64753;BME280;61095;52.454;16.948;2022-09-06T16:58:40;101006.63;;;19.14;39.33
64753;BME280;61095;52.454;16.948;2022-09-06T17:03:38;101006.09;;;19.08;39.91
64753;BME280;61095;52.454;16.948;2022-09-06T17:08:37;100999.88;;;19.07;40.38
64753;BME280;61095;52.454;16.948;2022-09-06T17:13:37;100997.28;;;19.05;40.41
64753;BME280;61095;52.454;16.948;2022-09-06T17:18:36;101000.59;;;18.95;40.39
64753;BME280;61095;52.454;16.948;2022-09-06T17:23:35;101002.50;;;18.77;40.85
64753;BME280;61095;52.454;16.948;2022-09-06T17:28:34;101002.38;;;18.63;40.90
64753;BME280;61095;52.454;16.948;2022-09-06T17:33:34;101004.94;;;18.49;41.31
64753;BME280;61095;52.454;16.948;2022-09-06T17:38:33;101001.16;;;18.37;41.68
64753;BME280;61095;52.454;16.948;2022-09-06T17:43:34;101001.22;;;18.20;41.50
64753;BME280;61095;52.454;16.948;2022-09-06T17:48:34;101009.78;;;18.09;42.16
64753;BME280;61095;52.454;16.948;2022-09-06T17:53:33;101007.44;;;18.03;42.14
64753;BME280;61095;52.454;16.948;2022-09-06T17:58:32;101015.16;;;17.92;42.43
64753;BME280;61095;52.454;16.948;2022-09-06T18:03:31;101014.63;;;17.85;42.27
64753;BME280;61095;52.454;16.948;2022-09-06T18:08:32;101013.44;;;17.73;42.51
64753;BME280;61095;52.454;16.948;2022-09-06T18:13:31;101017.25;;;17.68;42.58
64753;BME280;61095;52.454;16.948;2022-09-06T18:18:30;101016.72;;;17.44;43.29
64753;BME280;61095;52.454;16.948;2022-09-06T18:23:33;101018.06;;;17.35;43.06
64753;BME280;61095;52.454;16.948;2022-09-06T18:28:33;101018.19;;;17.15;44.15
64753;BME280;61095;52.454;16.948;2022-09-06T18:33:32;101024.13;;;17.03;44.21
64753;BME280;61095;52.454;16.948;2022-09-06T18:38:32;101027.25;;;16.94;44.37
64753;BME280;61095;52.454;16.948;2022-09-06T18:43:33;101026.09;;;16.80;45.08
64753;BME280;61095;52.454;16.948;2022-09-06T18:48:33;101036.50;;;16.66;45.35
64753;BME280;61095;52.454;16.948;2022-09-06T18:53:34;101043.00;;;16.61;45.99
64753;BME280;61095;52.454;16.948;2022-09-06T18:58:32;101039.19;;;16.47;46.08
64753;BME280;61095;52.454;16.948;2022-09-06T19:03:31;101033.28;;;16.41;46.37
64753;BME280;61095;52.454;16.948;2022-09-06T19:08:30;101035.50;;;16.31;46.39
64753;BME280;61095;52.454;16.948;2022-09-06T19:13:30;101037.69;;;16.21;47.10
64753;BME280;61095;52.454;16.948;2022-09-06T19:18:29;101031.66;;;16.18;47.06
64753;BME280;61095;52.454;16.948;2022-09-06T19:23:28;101032.19;;;16.06;47.11
64753;BME280;61095;52.454;16.948;2022-09-06T19:28:27;101033.34;;;16.00;47.56
64753;BME280;61095;52.454;16.948;2022-09-06T19:33:29;101030.00;;;15.95;47.57
64753;BME280;61095;52.454;16.948;2022-09-06T19:38:27;101026.69;;;15.90;47.88
64753;BME280;61095;52.454;16.948;2022-09-06T19:43:26;101017.09;;;15.86;47.98
64753;BME280;61095;52.454;16.948;2022-09-06T19:48:24;101018.03;;;15.85;47.52
64753;BME280;61095;52.454;16.948;2022-09-06T19:53:25;101014.69;;;15.80;48.10
64753;BME280;61095;52.454;16.948;2022-09-06T19:58:24;101008.84;;;15.72;48.30
64753;BME280;61095;52.454;16.948;2022-09-06T20:03:23;101004.50;;;15.69;48.28
64753;BME280;61095;52.454;16.948;2022-09-06T20:08:21;101007.72;;;15.57;48.40
64753;BME280;61095;52.454;16.948;2022-09-06T20:13:21;100996.41;;;15.52;48.44
64753;BME280;61095;52.454;16.948;2022-09-06T20:18:21;100987.69;;;15.48;48.45
64753;BME280;61095;52.454;16.948;2022-09-06T20:23:19;101003.13;;;15.40;48.89
64753;BME280;61095;52.454;16.948;2022-09-06T20:28:18;101001.66;;;15.33;48.70
64753;BME280;61095;52.454;16.948;2022-09-06T20:33:19;101000.41;;;15.20;49.02
64753;BME280;61095;52.454;16.948;2022-09-06T20:38:18;101001.34;;;15.19;48.96
64753;BME280;61095;52.454;16.948;2022-09-06T20:43:16;101006.13;;;15.11;48.91
64753;BME280;61095;52.454;16.948;2022-09-06T20:48:15;101009.78;;;15.08;48.91
64753;BME280;61095;52.454;16.948;2022-09-06T20:53:15;101010.69;;;15.07;49.50
64753;BME280;61095;52.454;16.948;2022-09-06T20:58:13;100996.94;;;14.97;49.27
64753;BME280;61095;52.454;16.948;2022-09-06T21:03:12;101008.50;;;14.95;49.33
64753;BME280;61095;52.454;16.948;2022-09-06T21:08:11;100999.00;;;14.89;49.92
64753;BME280;61095;52.454;16.948;2022-09-06T21:13:11;100989.47;;;14.84;50.13
64753;BME280;61095;52.454;16.948;2022-09-06T21:18:10;100997.44;;;14.84;50.10
64753;BME280;61095;52.454;16.948;2022-09-06T21:23:09;100992.16;;;14.82;49.51
64753;BME280;61095;52.454;16.948;2022-09-06T21:28:07;100990.44;;;14.81;49.92
64753;BME280;61095;52.454;16.948;2022-09-06T21:33:07;100996.06;;;14.74;50.29
64753;BME280;61095;52.454;16.948;2022-09-06T21:38:06;100988.97;;;14.74;49.88
64753;BME280;61095;52.454;16.948;2022-09-06T21:43:05;100988.28;;;14.69;50.23
64753;BME280;61095;52.454;16.948;2022-09-06T21:48:03;100991.19;;;14.63;50.16
64753;BME280;61095;52.454;16.948;2022-09-06T21:53:03;100988.59;;;14.61;50.40
64753;BME280;61095;52.454;16.948;2022-09-06T21:58:02;100979.94;;;14.56;50.45
64753;BME280;61095;52.454;16.948;2022-09-06T22:03:00;100977.47;;;14.52;50.38
64753;BME280;61095;52.454;16.948;2022-09-06T22:07:59;100974.88;;;14.50;50.61
64753;BME280;61095;52.454;16.948;2022-09-06T22:12:59;100982.03;;;14.48;50.84
64753;BME280;61095;52.454;16.948;2022-09-06T22:17:58;100975.88;;;14.48;51.08
64753;BME280;61095;52.454;16.948;2022-09-06T22:22:57;100977.72;;;14.46;50.99
64753;BME280;61095;52.454;16.948;2022-09-06T22:27:55;100971.59;;;14.44;51.09
64753;BME280;61095;52.454;16.948;2022-09-06T22:32:55;100970.84;;;14.40;51.21
64753;BME280;61095;52.454;16.948;2022-09-06T22:37:54;100968.53;;;14.31;51.21
64753;BME280;61095;52.454;16.948;2022-09-06T22:42:52;100965.13;;;14.27;51.33
64753;BME280;61095;52.454;16.948;2022-09-06T22:47:51;100961.97;;;14.18;51.89
64753;BME280;61095;52.454;16.948;2022-09-06T22:52:51;100962.16;;;14.13;51.92
64753;BME280;61095;52.454;16.948;2022-09-06T22:57:49;100953.50;;;14.08;51.66
64753;BME280;61095;52.454;16.948;2022-09-06T23:02:48;100949.13;;;14.07;51.80
64753;BME280;61095;52.454;16.948;2022-09-06T23:07:46;100946.81;;;13.98;51.72
64753;BME280;61095;52.454;16.948;2022-09-06T23:12:46;100946.00;;;13.96;52.25
64753;BME280;61095;52.454;16.948;2022-09-06T23:17:45;100936.50;;;13.89;52.34
64753;BME280;61095;52.454;16.948;2022-09-06T23:22:43;100930.47;;;13.84;52.45
64753;BME280;61095;52.454;16.948;2022-09-06T23:27:41;100933.53;;;13.73;52.53
64753;BME280;61095;52.454;16.948;2022-09-06T23:32:41;100929.44;;;13.64;52.70
64753;BME280;61095;52.454;16.948;2022-09-06T23:37:40;100931.41;;;13.59;52.82
64753;BME280;61095;52.454;16.948;2022-09-06T23:42:38;100921.75;;;13.57;52.56
64753;BME280;61095;52.454;16.948;2022-09-06T23:47:36;100923.59;;;13.55;52.49
64753;BME280;61095;52.454;16.948;2022-09-06T23:52:36;100915.72;;;13.53;53.12
64753;BME280;61095;52.454;16.948;2022-09-06T23:57:35;100914.84;;;13.53;52.72
